Weather at Bowden Airport [CLOSED]

Public forecast

Using degrees Celsius for public forecast. Weather courtesy of forecast.io.

Closest aviation weather report (METAR) to Bowden Airport

Closest report is Red Deer Regional Airport, 12.7 nm (23.5 km) NNE. Retrieved 2021/01/28 06:00 UTC (21 minutes ago):

CYQF 280600Z 33002KT 15SM OVC027 M17/M19 A2987 RMK SC8 /S01 AFT 12Z/ SLP193

Closest aviation forecast (TAF) to Bowden Airport

Closest forecast is Red Deer Regional Airport, 12.7 nm (23.5 km) NNE. Retrieved 2021/01/28 06:51 UTC (0 seconds ago):

TAF CYQF 280548Z 2806/2818 35004KT P6SM OVC025 FM280900 34003KT P6SM -SN SCT010 OVC020 TEMPO 2810/2818 5SM -SN OVC010 BECMG 2815/2817 13004KT RMK NXT FCST BY 281200Z